createdAt,value
2018-09-03T00:01:32.433Z,17.80
2018-09-03T00:04:01.051Z,17.80
2018-09-03T00:06:29.677Z,17.70
2018-09-03T00:08:58.354Z,17.80
2018-09-03T00:11:27.019Z,17.80
2018-09-03T00:13:55.614Z,17.70
2018-09-03T00:16:24.103Z,17.70
2018-09-03T00:18:52.560Z,17.70
2018-09-03T00:21:21.363Z,17.60
2018-09-03T00:23:49.811Z,17.60
2018-09-03T00:26:18.283Z,17.60
2018-09-03T00:28:46.970Z,17.60
2018-09-03T00:31:20.774Z,17.60
2018-09-03T00:34:52.667Z,17.50
2018-09-03T00:37:26.425Z,17.50
2018-09-03T00:40:00.334Z,17.50
2018-09-03T00:42:34.238Z,17.50
2018-09-03T00:45:08.011Z,17.50
2018-09-03T00:47:36.686Z,17.50
2018-09-03T00:50:05.887Z,17.50
2018-09-03T00:52:34.401Z,17.50
2018-09-03T00:55:03.043Z,17.50
2018-09-03T00:57:31.588Z,17.50
2018-09-03T01:00:00.240Z,17.50
2018-09-03T01:02:28.838Z,17.50
2018-09-03T01:04:57.522Z,17.50
2018-09-03T01:07:26.029Z,17.50
2018-09-03T01:09:54.544Z,17.50
2018-09-03T01:12:23.159Z,17.50
2018-09-03T01:14:51.761Z,17.50
2018-09-03T01:17:20.263Z,17.50
2018-09-03T01:19:48.865Z,17.50
2018-09-03T01:22:17.319Z,17.50
2018-09-03T01:24:45.787Z,17.50
2018-09-03T01:27:14.411Z,17.50
2018-09-03T01:29:43.110Z,17.50
2018-09-03T01:32:11.651Z,17.50
2018-09-03T01:34:40.168Z,17.50
2018-09-03T01:37:08.827Z,17.50
2018-09-03T01:39:37.343Z,17.50
2018-09-03T01:42:06.131Z,17.40
2018-09-03T01:44:34.591Z,17.40
2018-09-03T01:47:03.366Z,17.40
2018-09-03T01:49:31.826Z,17.40
2018-09-03T01:52:00.347Z,17.40
2018-09-03T01:54:28.958Z,17.40
2018-09-03T01:56:57.551Z,17.40
2018-09-03T01:59:26.175Z,17.40
2018-09-03T02:01:54.651Z,17.40
2018-09-03T02:04:23.202Z,17.30
2018-09-03T02:06:51.907Z,17.40
2018-09-03T02:09:20.379Z,17.40
2018-09-03T02:11:48.930Z,17.40
2018-09-03T02:14:17.570Z,17.30
2018-09-03T02:16:46.209Z,17.30
2018-09-03T02:19:15.174Z,17.30
2018-09-03T02:21:43.788Z,17.30
2018-09-03T02:24:12.321Z,17.40
2018-09-03T02:26:40.882Z,17.30
2018-09-03T02:29:09.444Z,17.30
2018-09-03T02:31:38.061Z,17.30
2018-09-03T02:34:06.641Z,17.30
2018-09-03T02:36:35.115Z,17.30
2018-09-03T02:39:04.906Z,17.30
2018-09-03T02:41:33.411Z,17.30
2018-09-03T02:44:01.850Z,17.30
2018-09-03T02:46:30.331Z,17.30
2018-09-03T02:48:58.806Z,17.30
2018-09-03T02:51:27.481Z,17.30
2018-09-03T02:53:55.957Z,17.30
2018-09-03T02:56:24.440Z,17.30
2018-09-03T02:58:52.938Z,17.30
2018-09-03T03:01:21.492Z,17.30
2018-09-03T03:03:50.019Z,17.30
2018-09-03T03:06:18.501Z,17.30
2018-09-03T03:08:47.010Z,17.20
2018-09-03T03:11:15.528Z,17.20
2018-09-03T03:13:44.134Z,17.10
2018-09-03T03:16:12.686Z,17.10
2018-09-03T03:18:41.724Z,17.10
2018-09-03T03:21:10.286Z,17.10
2018-09-03T03:23:38.775Z,17.10
2018-09-03T03:26:07.412Z,17.10
2018-09-03T03:28:36.026Z,17.20
2018-09-03T03:31:04.633Z,17.20
2018-09-03T03:33:33.098Z,17.20
2018-09-03T03:36:01.758Z,17.20
2018-09-03T03:38:30.494Z,17.20
2018-09-03T03:40:58.960Z,17.10
2018-09-03T03:43:27.475Z,17.10
2018-09-03T03:45:56.051Z,17.10
2018-09-03T03:48:24.714Z,17.00
2018-09-03T03:50:53.266Z,17.00
2018-09-03T03:53:21.723Z,17.00
2018-09-03T03:55:50.178Z,17.00
2018-09-03T03:58:18.958Z,17.00
2018-09-03T04:00:47.434Z,17.00
2018-09-03T04:03:15.919Z,17.00
2018-09-03T04:05:44.523Z,17.00
2018-09-03T04:08:13.001Z,17.00
2018-09-03T04:10:41.446Z,17.00
2018-09-03T04:13:10.031Z,17.00
2018-09-03T04:15:38.514Z,17.00
2018-09-03T04:18:06.979Z,16.90
2018-09-03T04:20:35.551Z,17.00
2018-09-03T04:23:04.030Z,17.00
2018-09-03T04:25:32.538Z,17.00
2018-09-03T04:28:01.292Z,17.00
2018-09-03T04:30:29.820Z,17.00
2018-09-03T04:32:58.404Z,17.00
2018-09-03T04:35:26.919Z,17.00
2018-09-03T04:37:55.595Z,17.00
2018-09-03T04:40:24.085Z,17.00
2018-09-03T04:42:52.839Z,16.90
2018-09-03T04:45:21.376Z,16.90
2018-09-03T04:47:49.934Z,17.00
2018-09-03T04:50:18.643Z,17.00
2018-09-03T04:52:47.210Z,16.90
2018-09-03T04:55:15.738Z,16.90
2018-09-03T04:57:44.170Z,16.90
2018-09-03T05:00:14.275Z,17.00
2018-09-03T05:02:43.411Z,17.00
2018-09-03T05:05:12.029Z,16.90
2018-09-03T05:07:40.534Z,16.90
2018-09-03T05:10:09.101Z,16.90
2018-09-03T05:12:37.584Z,16.90
2018-09-03T05:15:06.118Z,16.90
2018-09-03T05:17:34.623Z,16.90
2018-09-03T05:20:03.200Z,16.90
2018-09-03T05:22:31.799Z,16.90
2018-09-03T05:25:00.355Z,16.90
2018-09-03T05:27:29.012Z,16.90
2018-09-03T05:29:57.514Z,16.90
2018-09-03T05:32:25.981Z,16.90
2018-09-03T05:34:54.486Z,16.90
2018-09-03T05:37:23.330Z,16.80
2018-09-03T05:39:51.910Z,16.80
2018-09-03T05:42:20.450Z,16.70
2018-09-03T05:44:48.931Z,16.80
2018-09-03T05:47:17.407Z,16.80
2018-09-03T05:49:46.035Z,16.80
2018-09-03T05:52:14.639Z,16.70
2018-09-03T05:54:43.248Z,16.70
2018-09-03T05:57:11.715Z,16.70
2018-09-03T05:59:40.214Z,16.70
2018-09-03T06:02:08.671Z,16.70
2018-09-03T06:04:37.274Z,16.80
2018-09-03T06:07:06.031Z,16.80
2018-09-03T06:09:34.523Z,16.80
2018-09-03T06:12:03.015Z,16.80
2018-09-03T06:14:31.664Z,16.80
2018-09-03T06:17:00.310Z,16.80
2018-09-03T06:19:28.780Z,16.80
2018-09-03T06:21:57.367Z,16.80
2018-09-03T06:24:26.031Z,16.80
2018-09-03T06:26:54.686Z,16.80
2018-09-03T06:29:23.148Z,16.80
2018-09-03T06:31:51.807Z,16.80
2018-09-03T06:34:20.450Z,16.80
2018-09-03T06:36:48.951Z,16.90
2018-09-03T06:39:17.708Z,16.90
2018-09-03T06:41:46.430Z,16.90
2018-09-03T06:44:15.326Z,16.90
2018-09-03T06:46:43.930Z,16.90
2018-09-03T06:49:12.469Z,16.90
2018-09-03T06:51:41.140Z,16.90
2018-09-03T06:54:09.755Z,16.90
2018-09-03T06:56:38.334Z,17.00
2018-09-03T06:59:07.000Z,17.00
2018-09-03T07:01:35.602Z,17.00
2018-09-03T07:04:04.167Z,17.00
2018-09-03T07:06:32.643Z,17.00
2018-09-03T07:09:01.263Z,17.00
2018-09-03T07:11:29.734Z,17.00
2018-09-03T07:13:58.203Z,17.10
2018-09-03T07:16:26.690Z,17.10
2018-09-03T07:18:55.334Z,17.10
2018-09-03T07:21:23.831Z,17.10
2018-09-03T07:23:52.289Z,17.10
2018-09-03T07:26:20.835Z,17.10
2018-09-03T07:28:49.446Z,17.20
2018-09-03T07:31:17.935Z,17.20
2018-09-03T07:33:46.567Z,17.20
2018-09-03T07:36:15.054Z,17.20
2018-09-03T07:38:43.624Z,17.30
2018-09-03T07:41:12.606Z,17.30
2018-09-03T07:43:41.583Z,17.30
2018-09-03T07:46:10.058Z,17.40
2018-09-03T07:48:38.604Z,17.50
2018-09-03T07:51:07.194Z,17.50
2018-09-03T07:53:35.634Z,17.50
2018-09-03T07:56:04.205Z,17.40
2018-09-03T07:58:32.778Z,17.50
2018-09-03T08:01:01.321Z,17.50
2018-09-03T08:03:29.998Z,17.50
2018-09-03T08:05:58.650Z,17.50
2018-09-03T08:08:27.290Z,17.60
2018-09-03T08:10:55.759Z,17.70
2018-09-03T08:13:29.559Z,17.70
2018-09-03T08:15:58.092Z,17.80
2018-09-03T08:18:26.754Z,17.80
2018-09-03T08:20:55.246Z,17.80
2018-09-03T08:23:23.735Z,17.90
2018-09-03T08:25:52.382Z,18.00
2018-09-03T08:28:20.882Z,18.00
2018-09-03T08:30:49.345Z,18.10
2018-09-03T08:33:18.099Z,18.20
2018-09-03T08:35:46.806Z,18.30
2018-09-03T08:38:15.351Z,18.30
2018-09-03T08:40:43.866Z,18.40
2018-09-03T08:43:12.431Z,18.50
2018-09-03T08:45:40.958Z,18.60
2018-09-03T08:48:09.449Z,18.70
2018-09-03T08:50:37.958Z,18.70
2018-09-03T08:53:07.048Z,18.80
2018-09-03T08:55:35.722Z,18.80
2018-09-03T08:58:04.255Z,18.80
2018-09-03T09:00:32.734Z,18.80
2018-09-03T09:03:01.624Z,18.80
2018-09-03T09:05:30.234Z,18.80
2018-09-03T09:07:58.880Z,18.80
2018-09-03T09:10:27.563Z,18.90
2018-09-03T09:12:56.024Z,18.90
2018-09-03T09:15:24.607Z,18.90
2018-09-03T09:17:53.085Z,18.90
2018-09-03T09:20:21.868Z,18.90
2018-09-03T09:22:50.480Z,19.00
2018-09-03T09:25:18.999Z,19.00
2018-09-03T09:27:47.503Z,19.00
2018-09-03T09:30:16.147Z,19.00
2018-09-03T09:32:44.764Z,19.10
2018-09-03T09:35:13.267Z,19.20
2018-09-03T09:37:42.110Z,19.20
2018-09-03T09:40:10.627Z,19.30
2018-09-03T09:42:40.650Z,19.30
2018-09-03T09:45:10.023Z,19.40
2018-09-03T09:47:38.532Z,19.40
2018-09-03T09:50:07.199Z,19.40
2018-09-03T09:52:35.686Z,19.40
2018-09-03T09:55:04.675Z,19.30
2018-09-03T09:57:33.354Z,19.30
2018-09-03T10:00:01.862Z,19.30
2018-09-03T10:02:30.447Z,19.30
2018-09-03T10:04:58.946Z,19.20
2018-09-03T10:07:27.719Z,19.40
2018-09-03T10:09:56.190Z,19.30
2018-09-03T10:12:30.032Z,19.30
2018-09-03T10:14:59.196Z,19.30
2018-09-03T10:17:28.499Z,19.30
2018-09-03T10:19:57.571Z,19.30
2018-09-03T10:22:26.064Z,19.30
2018-09-03T10:24:54.738Z,19.20
2018-09-03T10:27:23.292Z,19.20
2018-09-03T10:29:51.843Z,19.20
2018-09-03T10:32:21.127Z,19.20
2018-09-03T10:34:49.668Z,19.20
2018-09-03T10:37:18.276Z,19.20
2018-09-03T10:39:46.946Z,19.20
2018-09-03T10:42:19.780Z,19.20
2018-09-03T10:44:48.256Z,19.20
2018-09-03T10:47:16.949Z,19.20
2018-09-03T10:49:45.460Z,19.20
2018-09-03T10:52:14.163Z,19.20
2018-09-03T10:54:42.703Z,19.20
2018-09-03T10:57:11.338Z,19.20
2018-09-03T10:59:40.231Z,19.20
2018-09-03T11:02:09.415Z,19.30
2018-09-03T11:04:37.994Z,19.30
2018-09-03T11:07:07.103Z,19.30
2018-09-03T11:09:35.877Z,19.30
2018-09-03T11:12:05.676Z,19.30
2018-09-03T11:14:34.263Z,19.30
2018-09-03T11:17:02.961Z,19.30
2018-09-03T11:19:34.015Z,19.30
2018-09-03T11:22:02.672Z,19.30
2018-09-03T11:24:31.432Z,19.30
2018-09-03T11:26:59.938Z,19.40
2018-09-03T11:29:28.424Z,19.40
2018-09-03T11:31:56.970Z,19.40
2018-09-03T11:34:25.568Z,19.40
2018-09-03T11:36:54.223Z,19.40
2018-09-03T11:39:22.739Z,19.40
2018-09-03T11:41:51.247Z,19.50
2018-09-03T11:44:19.906Z,19.50
2018-09-03T11:46:48.634Z,19.50
2018-09-03T11:49:17.257Z,19.50
2018-09-03T11:51:45.846Z,19.60
2018-09-03T11:54:14.380Z,19.60
2018-09-03T11:56:42.933Z,19.60
2018-09-03T11:59:11.623Z,19.60
2018-09-03T12:01:40.146Z,19.70
2018-09-03T12:04:08.688Z,19.70
2018-09-03T12:06:37.335Z,19.60
2018-09-03T12:09:08.322Z,19.60
2018-09-03T12:11:37.092Z,19.60
2018-09-03T12:14:09.828Z,19.60
2018-09-03T12:16:38.594Z,19.70
2018-09-03T12:19:07.107Z,19.60
2018-09-03T12:21:35.674Z,19.60
2018-09-03T12:24:04.411Z,19.60
2018-09-03T12:26:33.030Z,19.70
2018-09-03T12:29:01.827Z,19.70
2018-09-03T12:31:30.295Z,19.90
2018-09-03T12:33:58.919Z,20.00
2018-09-03T12:36:27.419Z,20.00
2018-09-03T12:38:56.091Z,19.90
2018-09-03T12:41:24.739Z,19.80
2018-09-03T12:43:53.260Z,19.90
2018-09-03T12:46:21.908Z,19.90
2018-09-03T12:48:50.426Z,19.80
2018-09-03T12:51:19.222Z,19.80
2018-09-03T12:53:47.700Z,19.80
2018-09-03T12:56:16.370Z,19.80
2018-09-03T12:58:44.837Z,19.80
2018-09-03T13:01:13.488Z,19.80
2018-09-03T13:03:41.998Z,19.70
2018-09-03T13:06:10.988Z,19.70
2018-09-03T13:08:39.511Z,19.70
2018-09-03T13:11:08.199Z,19.60
2018-09-03T13:13:37.055Z,19.60
2018-09-03T13:16:05.717Z,19.60
2018-09-03T13:18:34.221Z,19.70
2018-09-03T13:21:02.751Z,19.70
2018-09-03T13:23:31.336Z,19.60
2018-09-03T13:26:00.050Z,19.60
2018-09-03T13:28:28.582Z,19.60
2018-09-03T13:30:57.184Z,19.60
2018-09-03T13:33:25.862Z,19.60
2018-09-03T13:35:54.399Z,19.60
2018-09-03T13:38:23.054Z,19.70
2018-09-03T13:40:51.580Z,19.70
2018-09-03T13:43:20.086Z,19.70
2018-09-03T13:45:48.616Z,19.70
2018-09-03T13:48:17.323Z,19.70
2018-09-03T13:50:45.982Z,19.70
2018-09-03T13:53:14.510Z,19.70
2018-09-03T13:55:43.185Z,19.70
2018-09-03T13:58:11.683Z,19.70
2018-09-03T14:00:40.382Z,19.70
2018-09-03T14:03:08.891Z,19.70
2018-09-03T14:05:38.051Z,19.70
2018-09-03T14:08:06.606Z,19.70
2018-09-03T14:10:35.260Z,19.70
2018-09-03T14:13:03.981Z,19.70
2018-09-03T14:15:32.540Z,19.70
2018-09-03T14:18:01.103Z,19.70
2018-09-03T14:20:29.807Z,19.60
2018-09-03T14:22:58.342Z,19.60
2018-09-03T14:25:27.210Z,19.60
2018-09-03T14:27:55.909Z,19.60
2018-09-03T14:30:24.496Z,19.60
2018-09-03T14:32:53.025Z,19.60
2018-09-03T14:35:21.535Z,19.60
2018-09-03T14:37:50.264Z,19.60
2018-09-03T14:40:18.946Z,19.60
2018-09-03T14:42:47.824Z,19.60
2018-09-03T14:45:16.311Z,19.60
2018-09-03T14:47:44.776Z,19.60
2018-09-03T14:50:13.508Z,19.60
2018-09-03T14:52:42.182Z,19.60
2018-09-03T14:55:10.710Z,19.60
2018-09-03T14:57:39.302Z,19.60
2018-09-03T15:00:08.351Z,19.60
2018-09-03T15:02:36.880Z,19.60
2018-09-03T15:05:05.398Z,19.60
2018-09-03T15:07:34.246Z,19.60
2018-09-03T15:10:02.808Z,19.50
2018-09-03T15:12:31.374Z,19.50
2018-09-03T15:15:00.222Z,19.50
2018-09-03T15:17:28.911Z,19.50
2018-09-03T15:19:57.784Z,19.60
2018-09-03T15:22:26.448Z,19.70
2018-09-03T15:24:55.144Z,19.60
2018-09-03T15:27:23.656Z,19.60
2018-09-03T15:29:52.228Z,19.50
2018-09-03T15:32:20.831Z,19.60
2018-09-03T15:34:49.423Z,19.60
2018-09-03T15:37:17.940Z,19.60
2018-09-03T15:39:46.656Z,19.60
2018-09-03T15:42:15.314Z,19.60
2018-09-03T15:44:43.824Z,19.60
2018-09-03T15:47:12.353Z,19.60
2018-09-03T15:49:40.971Z,19.60
2018-09-03T15:52:09.459Z,19.60
2018-09-03T15:54:38.220Z,19.60
2018-09-03T15:57:06.863Z,19.60
2018-09-03T15:59:35.577Z,19.60
2018-09-03T16:02:04.215Z,19.50
2018-09-03T16:04:32.841Z,19.60
2018-09-03T16:07:01.439Z,19.60
2018-09-03T16:09:29.998Z,19.70
2018-09-03T16:11:58.619Z,19.70
2018-09-03T16:14:27.236Z,19.70
2018-09-03T16:16:55.880Z,19.80
2018-09-03T16:19:24.469Z,19.80
2018-09-03T16:21:53.288Z,19.80
2018-09-03T16:24:21.853Z,19.80
2018-09-03T16:26:50.591Z,19.90
2018-09-03T16:29:19.100Z,19.90
2018-09-03T16:31:48.151Z,19.90
2018-09-03T16:34:16.742Z,19.90
2018-09-03T16:36:45.445Z,19.90
2018-09-03T16:39:13.964Z,19.90
2018-09-03T16:41:42.619Z,19.90
2018-09-03T16:44:11.331Z,19.90
2018-09-03T16:46:39.995Z,19.90
2018-09-03T16:49:09.181Z,19.90
2018-09-03T16:51:37.631Z,19.90
2018-09-03T16:54:06.429Z,19.90
2018-09-03T16:56:34.969Z,19.80
2018-09-03T16:59:03.540Z,19.80
2018-09-03T17:01:32.200Z,19.80
2018-09-03T17:04:00.715Z,19.70
2018-09-03T17:06:29.538Z,19.80
2018-09-03T17:08:58.230Z,19.80
2018-09-03T17:11:26.803Z,19.80
2018-09-03T17:13:55.565Z,19.80
2018-09-03T17:16:24.292Z,19.80
2018-09-03T17:18:53.170Z,19.80
2018-09-03T17:21:21.787Z,19.80
2018-09-03T17:23:50.467Z,19.80
2018-09-03T17:26:19.132Z,19.80
2018-09-03T17:28:47.997Z,19.80
2018-09-03T17:31:16.564Z,19.80
2018-09-03T17:33:45.649Z,19.80
2018-09-03T17:36:14.272Z,19.80
2018-09-03T17:38:42.919Z,19.70
2018-09-03T17:41:11.775Z,19.80
2018-09-03T17:43:40.455Z,19.70
2018-09-03T17:46:09.241Z,19.70
2018-09-03T17:48:37.994Z,19.70
2018-09-03T17:51:06.823Z,19.70
2018-09-03T17:53:35.426Z,19.60
2018-09-03T17:56:04.191Z,19.60
2018-09-03T17:58:32.808Z,19.70
2018-09-03T18:01:01.647Z,19.60
2018-09-03T18:03:30.422Z,19.60
2018-09-03T18:05:59.118Z,19.60
2018-09-03T18:08:27.957Z,19.60
2018-09-03T18:10:56.491Z,19.60
2018-09-03T18:13:25.215Z,19.50
2018-09-03T18:15:53.743Z,19.50
2018-09-03T18:18:22.374Z,19.50
2018-09-03T18:20:50.974Z,19.50
2018-09-03T18:23:19.509Z,19.50
2018-09-03T18:25:48.427Z,19.50
2018-09-03T18:28:17.094Z,19.50
2018-09-03T18:30:46.215Z,19.50
2018-09-03T18:33:14.989Z,19.50
2018-09-03T18:35:43.879Z,19.50
2018-09-03T18:38:12.637Z,19.40
2018-09-03T18:40:41.390Z,19.40
2018-09-03T18:43:10.122Z,19.40
2018-09-03T18:45:38.724Z,19.40
2018-09-03T18:48:07.428Z,19.40
2018-09-03T18:50:36.248Z,19.40
2018-09-03T18:53:06.165Z,19.40
2018-09-03T18:55:35.168Z,19.40
2018-09-03T18:58:03.773Z,19.40
2018-09-03T19:00:32.294Z,19.30
2018-09-03T19:03:01.227Z,19.30
2018-09-03T19:05:30.785Z,19.30
2018-09-03T19:07:59.463Z,19.30
2018-09-03T19:10:28.252Z,19.30
2018-09-03T19:12:56.851Z,19.30
2018-09-03T19:15:25.768Z,19.30
2018-09-03T19:17:54.861Z,19.30
2018-09-03T19:20:23.558Z,19.30
2018-09-03T19:22:52.420Z,19.20
2018-09-03T19:25:20.981Z,19.20
2018-09-03T19:27:49.531Z,19.20
2018-09-03T19:30:18.371Z,19.20
2018-09-03T19:32:46.874Z,19.20
2018-09-03T19:35:15.735Z,19.20
2018-09-03T19:37:44.363Z,19.10
2018-09-03T19:40:13.025Z,19.10
2018-09-03T19:42:41.651Z,19.10
2018-09-03T19:45:10.376Z,19.10
2018-09-03T19:47:38.998Z,19.10
2018-09-03T19:50:07.738Z,19.10
2018-09-03T19:52:36.312Z,19.10
2018-09-03T19:55:04.908Z,19.10
2018-09-03T19:57:33.488Z,19.10
2018-09-03T20:00:02.452Z,19.10
2018-09-03T20:02:31.016Z,19.10
2018-09-03T20:04:59.696Z,19.10
2018-09-03T20:07:28.387Z,19.10
2018-09-03T20:09:57.113Z,19.10
2018-09-03T20:12:25.679Z,19.10
2018-09-03T20:14:54.865Z,19.10
2018-09-03T20:17:24.199Z,19.10
2018-09-03T20:19:53.376Z,19.10
2018-09-03T20:22:22.259Z,19.10
2018-09-03T20:24:50.784Z,19.00
2018-09-03T20:27:20.029Z,19.00
2018-09-03T20:29:48.701Z,19.00
2018-09-03T20:32:17.415Z,19.00
2018-09-03T20:34:45.963Z,19.00
2018-09-03T20:37:14.790Z,19.00
2018-09-03T20:39:43.400Z,19.00
2018-09-03T20:42:12.078Z,19.00
2018-09-03T20:44:40.749Z,19.00
2018-09-03T20:47:09.307Z,18.90
2018-09-03T20:49:37.965Z,18.90
2018-09-03T20:52:06.629Z,18.90
2018-09-03T20:54:35.199Z,18.90
2018-09-03T20:57:03.899Z,18.90
2018-09-03T20:59:32.439Z,18.90
2018-09-03T21:02:00.983Z,18.90
2018-09-03T21:04:29.679Z,18.90
2018-09-03T21:06:58.246Z,18.90
2018-09-03T21:09:26.771Z,18.80
2018-09-03T21:11:55.319Z,18.90
2018-09-03T21:14:24.179Z,18.80
2018-09-03T21:16:52.621Z,18.90
2018-09-03T21:19:21.211Z,18.80
2018-09-03T21:21:49.896Z,18.80
2018-09-03T21:24:18.409Z,18.80
2018-09-03T21:26:46.930Z,18.80
2018-09-03T21:29:15.563Z,18.80
2018-09-03T21:31:44.260Z,18.80
2018-09-03T21:34:12.900Z,18.70
2018-09-03T21:36:41.856Z,18.70
2018-09-03T21:39:10.660Z,18.70
2018-09-03T21:41:39.462Z,18.70
2018-09-03T21:44:08.075Z,18.60
2018-09-03T21:46:36.629Z,18.50
2018-09-03T21:49:05.264Z,18.50
2018-09-03T21:51:33.934Z,18.50
2018-09-03T21:54:02.544Z,18.50
2018-09-03T21:56:31.148Z,18.40
2018-09-03T21:58:59.844Z,18.30
2018-09-03T22:01:28.397Z,18.30
2018-09-03T22:03:57.296Z,18.30
2018-09-03T22:06:26.023Z,18.30
2018-09-03T22:08:54.659Z,18.30
2018-09-03T22:11:23.170Z,18.20
2018-09-03T22:13:51.682Z,18.20
2018-09-03T22:16:20.347Z,18.20
2018-09-03T22:18:48.906Z,18.20
2018-09-03T22:21:17.597Z,18.20
2018-09-03T22:23:46.111Z,18.20
2018-09-03T22:26:14.860Z,18.20
2018-09-03T22:28:43.367Z,18.20
2018-09-03T22:31:11.910Z,18.10
2018-09-03T22:33:40.451Z,18.20
2018-09-03T22:36:09.073Z,18.20
2018-09-03T22:38:37.839Z,18.20
2018-09-03T22:41:06.352Z,18.20
2018-09-03T22:43:34.854Z,18.10
2018-09-03T22:46:03.359Z,18.10
2018-09-03T22:48:31.842Z,18.10
2018-09-03T22:51:00.313Z,18.00
2018-09-03T22:53:28.946Z,18.00
2018-09-03T22:55:57.419Z,18.00
2018-09-03T22:58:26.073Z,17.90
2018-09-03T23:00:54.726Z,17.80
2018-09-03T23:03:23.191Z,17.90
2018-09-03T23:05:51.884Z,17.90
2018-09-03T23:08:20.350Z,17.90
2018-09-03T23:10:49.185Z,17.80
2018-09-03T23:13:17.686Z,17.80
2018-09-03T23:15:51.646Z,17.80
2018-09-03T23:18:21.411Z,17.80
2018-09-03T23:20:49.998Z,17.80
2018-09-03T23:23:18.546Z,17.80
2018-09-03T23:25:47.848Z,17.80
2018-09-03T23:28:16.311Z,17.80
2018-09-03T23:30:45.011Z,17.90
2018-09-03T23:33:13.500Z,17.90
2018-09-03T23:35:41.943Z,17.80
2018-09-03T23:38:10.426Z,17.80
2018-09-03T23:40:39.006Z,17.80
2018-09-03T23:43:07.515Z,17.80
2018-09-03T23:45:36.139Z,17.80
2018-09-03T23:48:04.926Z,17.80
2018-09-03T23:50:33.384Z,17.80
2018-09-03T23:53:01.922Z,17.80
2018-09-03T23:55:30.505Z,17.90
2018-09-03T23:57:59.255Z,17.90
